<?xml version="1.0" encoding="UTF-8" standalone="no" ?>
<gpx xmlns="http://www.topografix.com/GPX/1/1" xmlns:xsi="http://www.w3.org/2001/XMLSchema-instance" xsi:schemaLocation="http://www.topografix.com/GPX/1/1 http://www.topografix.com/GPX/1/1/gpx.xsd" version="1.1" creator="VisuGPX - https://www.visugpx.com">
  <metadata>
    <name>VCBN-2025-vendredi-trace5-v1</name>
  </metadata>
  <trk>
    <name><![CDATA[VCBN-2025-vendredi-trace5-v1]]></name>
    <trkseg>
      <trkpt lat="48.36023" lon="-0.07844">
        <ele>126</ele>
        <time>2019-08-23T16:21:39Z</time>
      </trkpt>
      <trkpt lat="48.36015" lon="-0.07844">
        <ele>127</ele>
        <time>2019-08-23T16:21:37Z</time>
      </trkpt>
      <trkpt lat="48.3601" lon="-0.07828">
        <ele>128</ele>
        <time>2019-08-23T16:21:34Z</time>
      </trkpt>
      <trkpt lat="48.36008" lon="-0.07798">
        <ele>130</ele>
        <time>2019-08-23T16:21:29Z</time>
      </trkpt>
      <trkpt lat="48.36" lon="-0.0778">
        <ele>132</ele>
        <time>2019-08-23T16:21:26Z</time>
      </trkpt>
      <trkpt lat="48.35983" lon="-0.07781">
        <ele>134</ele>
        <time>2019-08-23T16:21:22Z</time>
      </trkpt>
      <trkpt lat="48.35917" lon="-0.07838">
        <ele>139</ele>
        <time>2019-08-23T16:21:04Z</time>
      </trkpt>
      <trkpt lat="48.35862" lon="-0.07891">
        <ele>142</ele>
        <time>2019-08-23T16:20:49Z</time>
      </trkpt>
      <trkpt lat="48.35839" lon="-0.07963">
        <ele>136</ele>
        <time>2019-08-23T16:20:37Z</time>
      </trkpt>
      <trkpt lat="48.35824" lon="-0.07991">
        <ele>133</ele>
        <time>2019-08-23T16:20:31Z</time>
      </trkpt>
      <trkpt lat="48.3579" lon="-0.08022">
        <ele>130</ele>
        <time>2019-08-23T16:20:22Z</time>
      </trkpt>
      <trkpt lat="48.35685" lon="-0.08097">
        <ele>122</ele>
        <time>2019-08-23T16:19:55Z</time>
      </trkpt>
      <trkpt lat="48.35646" lon="-0.08098">
        <ele>120</ele>
        <time>2019-08-23T16:19:46Z</time>
      </trkpt>
      <trkpt lat="48.35619" lon="-0.08076">
        <ele>119</ele>
        <time>2019-08-23T16:19:38Z</time>
      </trkpt>
      <trkpt lat="48.35542" lon="-0.07947">
        <ele>117</ele>
        <time>2019-08-23T16:19:12Z</time>
      </trkpt>
      <trkpt lat="48.35502" lon="-0.07861">
        <ele>112</ele>
        <time>2019-08-23T16:18:55Z</time>
      </trkpt>
      <trkpt lat="48.35469" lon="-0.07772">
        <ele>112</ele>
        <time>2019-08-23T16:18:39Z</time>
      </trkpt>
      <trkpt lat="48.35453" lon="-0.07755">
        <ele>110</ele>
        <time>2019-08-23T16:18:35Z</time>
      </trkpt>
      <trkpt lat="48.35421" lon="-0.07745">
        <ele>104</ele>
        <time>2019-08-23T16:18:27Z</time>
      </trkpt>
      <trkpt lat="48.35297" lon="-0.07715">
        <ele>108</ele>
        <time>2019-08-23T16:17:58Z</time>
      </trkpt>
      <trkpt lat="48.35215" lon="-0.07699">
        <ele>108</ele>
        <time>2019-08-23T16:17:39Z</time>
      </trkpt>
      <trkpt lat="48.35163" lon="-0.07753">
        <ele>110</ele>
        <time>2019-08-23T16:17:24Z</time>
      </trkpt>
      <trkpt lat="48.35176" lon="-0.07809">
        <ele>114</ele>
        <time>2019-08-23T16:17:15Z</time>
      </trkpt>
      <trkpt lat="48.35183" lon="-0.07855">
        <ele>118</ele>
        <time>2019-08-23T16:17:07Z</time>
      </trkpt>
      <trkpt lat="48.35193" lon="-0.07951">
        <ele>129</ele>
        <time>2019-08-23T16:16:52Z</time>
      </trkpt>
      <trkpt lat="48.35203" lon="-0.07974">
        <ele>133</ele>
        <time>2019-08-23T16:16:48Z</time>
      </trkpt>
      <trkpt lat="48.35233" lon="-0.08018">
        <ele>142</ele>
        <time>2019-08-23T16:16:38Z</time>
      </trkpt>
      <trkpt lat="48.35244" lon="-0.08045">
        <ele>148</ele>
        <time>2019-08-23T16:16:33Z</time>
      </trkpt>
      <trkpt lat="48.35213" lon="-0.08054">
        <ele>150</ele>
        <time>2019-08-23T16:16:26Z</time>
      </trkpt>
      <trkpt lat="48.35204" lon="-0.08069">
        <ele>153</ele>
        <time>2019-08-23T16:16:23Z</time>
      </trkpt>
      <trkpt lat="48.35143" lon="-0.08088">
        <ele>154</ele>
        <time>2019-08-23T16:16:08Z</time>
      </trkpt>
      <trkpt lat="48.35176" lon="-0.08119">
        <ele>165</ele>
        <time>2019-08-23T16:15:59Z</time>
      </trkpt>
      <trkpt lat="48.35185" lon="-0.08134">
        <ele>167</ele>
        <time>2019-08-23T16:15:56Z</time>
      </trkpt>
      <trkpt lat="48.35188" lon="-0.08187">
        <ele>175</ele>
        <time>2019-08-23T16:15:48Z</time>
      </trkpt>
      <trkpt lat="48.35186" lon="-0.08213">
        <ele>177</ele>
        <time>2019-08-23T16:15:44Z</time>
      </trkpt>
      <trkpt lat="48.35166" lon="-0.08241">
        <ele>183</ele>
        <time>2019-08-23T16:15:37Z</time>
      </trkpt>
      <trkpt lat="48.35147" lon="-0.08288">
        <ele>183</ele>
        <time>2019-08-23T16:15:29Z</time>
      </trkpt>
      <trkpt lat="48.35118" lon="-0.08379">
        <ele>185</ele>
        <time>2019-08-23T16:15:13Z</time>
      </trkpt>
      <trkpt lat="48.35101" lon="-0.08379">
        <ele>188</ele>
        <time>2019-08-23T16:15:09Z</time>
      </trkpt>
      <trkpt lat="48.35085" lon="-0.08436">
        <ele>191</ele>
        <time>2019-08-23T16:15:00Z</time>
      </trkpt>
      <trkpt lat="48.35077" lon="-0.08421">
        <ele>191</ele>
        <time>2019-08-23T16:14:57Z</time>
      </trkpt>
      <trkpt lat="48.35052" lon="-0.084">
        <ele>192</ele>
        <time>2019-08-23T16:14:50Z</time>
      </trkpt>
      <trkpt lat="48.35033" lon="-0.08408">
        <ele>193</ele>
        <time>2019-08-23T16:14:45Z</time>
      </trkpt>
      <trkpt lat="48.35014" lon="-0.08404">
        <ele>193</ele>
        <time>2019-08-23T16:14:41Z</time>
      </trkpt>
      <trkpt lat="48.34968" lon="-0.08358">
        <ele>194</ele>
        <time>2019-08-23T16:14:28Z</time>
      </trkpt>
      <trkpt lat="48.34981" lon="-0.08319">
        <ele>192</ele>
        <time>2019-08-23T16:14:21Z</time>
      </trkpt>
      <trkpt lat="48.34949" lon="-0.0827">
        <ele>187</ele>
        <time>2019-08-23T16:14:10Z</time>
      </trkpt>
      <trkpt lat="48.34898" lon="-0.08275">
        <ele>186</ele>
        <time>2019-08-23T16:13:58Z</time>
      </trkpt>
      <trkpt lat="48.34853" lon="-0.08264">
        <ele>183</ele>
        <time>2019-08-23T16:13:48Z</time>
      </trkpt>
      <trkpt lat="48.34827" lon="-0.08238">
        <ele>175</ele>
        <time>2019-08-23T16:13:41Z</time>
      </trkpt>
      <trkpt lat="48.34791" lon="-0.0824">
        <ele>169</ele>
        <time>2019-08-23T16:13:32Z</time>
      </trkpt>
      <trkpt lat="48.34777" lon="-0.08295">
        <ele>172</ele>
        <time>2019-08-23T16:13:23Z</time>
      </trkpt>
      <trkpt lat="48.34758" lon="-0.08323">
        <ele>169</ele>
        <time>2019-08-23T16:13:17Z</time>
      </trkpt>
      <trkpt lat="48.34752" lon="-0.08413">
        <ele>172</ele>
        <time>2019-08-23T16:13:03Z</time>
      </trkpt>
      <trkpt lat="48.34746" lon="-0.08451">
        <ele>170</ele>
        <time>2019-08-23T16:12:57Z</time>
      </trkpt>
      <trkpt lat="48.34754" lon="-0.0848">
        <ele>172</ele>
        <time>2019-08-23T16:12:52Z</time>
      </trkpt>
      <trkpt lat="48.3477" lon="-0.08498">
        <ele>175</ele>
        <time>2019-08-23T16:12:47Z</time>
      </trkpt>
      <trkpt lat="48.34787" lon="-0.08527">
        <ele>173</ele>
        <time>2019-08-23T16:12:41Z</time>
      </trkpt>
      <trkpt lat="48.3481" lon="-0.08531">
        <ele>178</ele>
        <time>2019-08-23T16:12:36Z</time>
      </trkpt>
      <trkpt lat="48.34891" lon="-0.08586">
        <ele>182</ele>
        <time>2019-08-23T16:12:15Z</time>
      </trkpt>
      <trkpt lat="48.34952" lon="-0.08619">
        <ele>182</ele>
        <time>2019-08-23T16:12:00Z</time>
      </trkpt>
      <trkpt lat="48.35001" lon="-0.08656">
        <ele>181</ele>
        <time>2019-08-23T16:11:47Z</time>
      </trkpt>
      <trkpt lat="48.3504" lon="-0.08681">
        <ele>179</ele>
        <time>2019-08-23T16:11:37Z</time>
      </trkpt>
      <trkpt lat="48.35064" lon="-0.08703">
        <ele>177</ele>
        <time>2019-08-23T16:11:31Z</time>
      </trkpt>
      <trkpt lat="48.35094" lon="-0.08737">
        <ele>174</ele>
        <time>2019-08-23T16:11:22Z</time>
      </trkpt>
      <trkpt lat="48.3511" lon="-0.08809">
        <ele>167</ele>
        <time>2019-08-23T16:11:10Z</time>
      </trkpt>
      <trkpt lat="48.35119" lon="-0.08819">
        <ele>167</ele>
        <time>2019-08-23T16:11:07Z</time>
      </trkpt>
      <trkpt lat="48.35157" lon="-0.09033">
        <ele>180</ele>
        <time>2019-08-23T16:10:33Z</time>
      </trkpt>
      <trkpt lat="48.35158" lon="-0.09146">
        <ele>177</ele>
        <time>2019-08-23T16:10:15Z</time>
      </trkpt>
      <trkpt lat="48.35161" lon="-0.09171">
        <ele>177</ele>
        <time>2019-08-23T16:10:12Z</time>
      </trkpt>
      <trkpt lat="48.35169" lon="-0.09195">
        <ele>178</ele>
        <time>2019-08-23T16:10:07Z</time>
      </trkpt>
      <trkpt lat="48.35185" lon="-0.09207">
        <ele>179</ele>
        <time>2019-08-23T16:10:03Z</time>
      </trkpt>
      <trkpt lat="48.35218" lon="-0.09225">
        <ele>183</ele>
        <time>2019-08-23T16:09:55Z</time>
      </trkpt>
      <trkpt lat="48.35235" lon="-0.0922">
        <ele>185</ele>
        <time>2019-08-23T16:09:51Z</time>
      </trkpt>
      <trkpt lat="48.35278" lon="-0.09357">
        <ele>195</ele>
        <time>2019-08-23T16:09:27Z</time>
      </trkpt>
      <trkpt lat="48.35279" lon="-0.09396">
        <ele>196</ele>
        <time>2019-08-23T16:09:21Z</time>
      </trkpt>
      <trkpt lat="48.35266" lon="-0.09557">
        <ele>202</ele>
        <time>2019-08-23T16:08:56Z</time>
      </trkpt>
      <trkpt lat="48.35267" lon="-0.09618">
        <ele>203</ele>
        <time>2019-08-23T16:08:47Z</time>
      </trkpt>
      <trkpt lat="48.35292" lon="-0.09807">
        <ele>209</ele>
        <time>2019-08-23T16:08:17Z</time>
      </trkpt>
      <trkpt lat="48.35292" lon="-0.09853">
        <ele>209</ele>
        <time>2019-08-23T16:08:10Z</time>
      </trkpt>
      <trkpt lat="48.35284" lon="-0.09892">
        <ele>208</ele>
        <time>2019-08-23T16:08:03Z</time>
      </trkpt>
      <trkpt lat="48.3526" lon="-0.09962">
        <ele>209</ele>
        <time>2019-08-23T16:07:51Z</time>
      </trkpt>
      <trkpt lat="48.35213" lon="-0.10129">
        <ele>208</ele>
        <time>2019-08-23T16:07:23Z</time>
      </trkpt>
      <trkpt lat="48.35199" lon="-0.102">
        <ele>207</ele>
        <time>2019-08-23T16:07:12Z</time>
      </trkpt>
      <trkpt lat="48.35169" lon="-0.10181">
        <ele>205</ele>
        <time>2019-08-23T16:07:04Z</time>
      </trkpt>
      <trkpt lat="48.3517" lon="-0.10258">
        <ele>205</ele>
        <time>2019-08-23T16:06:52Z</time>
      </trkpt>
      <trkpt lat="48.35157" lon="-0.10306">
        <ele>202</ele>
        <time>2019-08-23T16:06:44Z</time>
      </trkpt>
      <trkpt lat="48.35155" lon="-0.10375">
        <ele>200</ele>
        <time>2019-08-23T16:06:33Z</time>
      </trkpt>
      <trkpt lat="48.35172" lon="-0.10533">
        <ele>202</ele>
        <time>2019-08-23T16:06:08Z</time>
      </trkpt>
      <trkpt lat="48.35167" lon="-0.10625">
        <ele>201</ele>
        <time>2019-08-23T16:05:54Z</time>
      </trkpt>
      <trkpt lat="48.3516" lon="-0.10704">
        <ele>201</ele>
        <time>2019-08-23T16:05:42Z</time>
      </trkpt>
      <trkpt lat="48.35148" lon="-0.10791">
        <ele>204</ele>
        <time>2019-08-23T16:05:28Z</time>
      </trkpt>
      <trkpt lat="48.35108" lon="-0.10954">
        <ele>210</ele>
        <time>2019-08-23T16:05:01Z</time>
      </trkpt>
      <trkpt lat="48.35094" lon="-0.11046">
        <ele>212</ele>
        <time>2019-08-23T16:04:46Z</time>
      </trkpt>
      <trkpt lat="48.35092" lon="-0.11148">
        <ele>214</ele>
        <time>2019-08-23T16:04:30Z</time>
      </trkpt>
      <trkpt lat="48.35108" lon="-0.11248">
        <ele>216</ele>
        <time>2019-08-23T16:04:14Z</time>
      </trkpt>
      <trkpt lat="48.35128" lon="-0.11432">
        <ele>217</ele>
        <time>2019-08-23T16:03:46Z</time>
      </trkpt>
      <trkpt lat="48.35184" lon="-0.11707">
        <ele>221</ele>
        <time>2019-08-23T16:03:01Z</time>
      </trkpt>
      <trkpt lat="48.35202" lon="-0.11837">
        <ele>223</ele>
        <time>2019-08-23T16:02:40Z</time>
      </trkpt>
      <trkpt lat="48.352" lon="-0.11887">
        <ele>224</ele>
        <time>2019-08-23T16:02:33Z</time>
      </trkpt>
      <trkpt lat="48.35095" lon="-0.11881">
        <ele>220</ele>
        <time>2019-08-23T16:02:08Z</time>
      </trkpt>
      <trkpt lat="48.35058" lon="-0.11894">
        <ele>218</ele>
        <time>2019-08-23T16:01:59Z</time>
      </trkpt>
      <trkpt lat="48.35017" lon="-0.11915">
        <ele>215</ele>
        <time>2019-08-23T16:01:49Z</time>
      </trkpt>
      <trkpt lat="48.34978" lon="-0.11931">
        <ele>212</ele>
        <time>2019-08-23T16:01:40Z</time>
      </trkpt>
      <trkpt lat="48.34979" lon="-0.11965">
        <ele>213</ele>
        <time>2019-08-23T16:01:34Z</time>
      </trkpt>
      <trkpt lat="48.3497" lon="-0.12072">
        <ele>212</ele>
        <time>2019-08-23T16:01:18Z</time>
      </trkpt>
      <trkpt lat="48.34953" lon="-0.12146">
        <ele>212</ele>
        <time>2019-08-23T16:01:05Z</time>
      </trkpt>
      <trkpt lat="48.34872" lon="-0.12238">
        <ele>205</ele>
        <time>2019-08-23T16:00:42Z</time>
      </trkpt>
      <trkpt lat="48.34838" lon="-0.12292">
        <ele>203</ele>
        <time>2019-08-23T16:00:30Z</time>
      </trkpt>
      <trkpt lat="48.3485" lon="-0.12442">
        <ele>206</ele>
        <time>2019-08-23T16:00:07Z</time>
      </trkpt>
      <trkpt lat="48.34794" lon="-0.12478">
        <ele>207</ele>
        <time>2019-08-23T15:59:52Z</time>
      </trkpt>
      <trkpt lat="48.34692" lon="-0.1245">
        <ele>210</ele>
        <time>2019-08-23T15:59:28Z</time>
      </trkpt>
      <trkpt lat="48.34617" lon="-0.12516">
        <ele>214</ele>
        <time>2019-08-23T15:59:08Z</time>
      </trkpt>
      <trkpt lat="48.34538" lon="-0.1256">
        <ele>215</ele>
        <time>2019-08-23T15:58:48Z</time>
      </trkpt>
      <trkpt lat="48.34475" lon="-0.12677">
        <ele>218</ele>
        <time>2019-08-23T15:58:25Z</time>
      </trkpt>
      <trkpt lat="48.34458" lon="-0.12822">
        <ele>220</ele>
        <time>2019-08-23T15:58:02Z</time>
      </trkpt>
      <trkpt lat="48.34412" lon="-0.12889">
        <ele>219</ele>
        <time>2019-08-23T15:57:47Z</time>
      </trkpt>
      <trkpt lat="48.344" lon="-0.12955">
        <ele>223</ele>
        <time>2019-08-23T15:57:36Z</time>
      </trkpt>
      <trkpt lat="48.34395" lon="-0.13044">
        <ele>224</ele>
        <time>2019-08-23T15:57:23Z</time>
      </trkpt>
      <trkpt lat="48.34405" lon="-0.13238">
        <ele>222</ele>
        <time>2019-08-23T15:56:52Z</time>
      </trkpt>
      <trkpt lat="48.34361" lon="-0.1322">
        <ele>223</ele>
        <time>2019-08-23T15:56:42Z</time>
      </trkpt>
      <trkpt lat="48.34305" lon="-0.13174">
        <ele>225</ele>
        <time>2019-08-23T15:56:27Z</time>
      </trkpt>
      <trkpt lat="48.34176" lon="-0.12919">
        <ele>234</ele>
        <time>2019-08-23T15:55:37Z</time>
      </trkpt>
      <trkpt lat="48.34132" lon="-0.1284">
        <ele>235</ele>
        <time>2019-08-23T15:55:21Z</time>
      </trkpt>
      <trkpt lat="48.34096" lon="-0.128">
        <ele>237</ele>
        <time>2019-08-23T15:55:11Z</time>
      </trkpt>
      <trkpt lat="48.34058" lon="-0.12794">
        <ele>237</ele>
        <time>2019-08-23T15:55:02Z</time>
      </trkpt>
      <trkpt lat="48.3398" lon="-0.12833">
        <ele>236</ele>
        <time>2019-08-23T15:54:43Z</time>
      </trkpt>
      <trkpt lat="48.34049" lon="-0.13039">
        <ele>233</ele>
        <time>2019-08-23T15:54:07Z</time>
      </trkpt>
      <trkpt lat="48.34073" lon="-0.13131">
        <ele>233</ele>
        <time>2019-08-23T15:53:51Z</time>
      </trkpt>
      <trkpt lat="48.34102" lon="-0.13322">
        <ele>233</ele>
        <time>2019-08-23T15:53:21Z</time>
      </trkpt>
      <trkpt lat="48.34114" lon="-0.13425">
        <ele>232</ele>
        <time>2019-08-23T15:53:05Z</time>
      </trkpt>
      <trkpt lat="48.34136" lon="-0.1356">
        <ele>234</ele>
        <time>2019-08-23T15:52:43Z</time>
      </trkpt>
      <trkpt lat="48.34143" lon="-0.13631">
        <ele>234</ele>
        <time>2019-08-23T15:52:32Z</time>
      </trkpt>
      <trkpt lat="48.34053" lon="-0.13634">
        <ele>236</ele>
        <time>2019-08-23T15:52:11Z</time>
      </trkpt>
      <trkpt lat="48.33968" lon="-0.13657">
        <ele>236</ele>
        <time>2019-08-23T15:51:51Z</time>
      </trkpt>
      <trkpt lat="48.33858" lon="-0.1368">
        <ele>233</ele>
        <time>2019-08-23T15:51:25Z</time>
      </trkpt>
      <trkpt lat="48.33741" lon="-0.1369">
        <ele>228</ele>
        <time>2019-08-23T15:50:58Z</time>
      </trkpt>
      <trkpt lat="48.3369" lon="-0.13659">
        <ele>221</ele>
        <time>2019-08-23T15:50:45Z</time>
      </trkpt>
      <trkpt lat="48.33633" lon="-0.13587">
        <ele>211</ele>
        <time>2019-08-23T15:50:27Z</time>
      </trkpt>
      <trkpt lat="48.33554" lon="-0.13614">
        <ele>197</ele>
        <time>2019-08-23T15:50:08Z</time>
      </trkpt>
      <trkpt lat="48.33518" lon="-0.13605">
        <ele>191</ele>
        <time>2019-08-23T15:50:00Z</time>
      </trkpt>
      <trkpt lat="48.33465" lon="-0.13599">
        <ele>185</ele>
        <time>2019-08-23T15:49:47Z</time>
      </trkpt>
      <trkpt lat="48.33426" lon="-0.1362">
        <ele>183</ele>
        <time>2019-08-23T15:49:38Z</time>
      </trkpt>
      <trkpt lat="48.33416" lon="-0.13608">
        <ele>181</ele>
        <time>2019-08-23T15:49:35Z</time>
      </trkpt>
      <trkpt lat="48.33372" lon="-0.13631">
        <ele>179</ele>
        <time>2019-08-23T15:49:24Z</time>
      </trkpt>
      <trkpt lat="48.33367" lon="-0.13652">
        <ele>179</ele>
        <time>2019-08-23T15:49:20Z</time>
      </trkpt>
      <trkpt lat="48.33371" lon="-0.13718">
        <ele>181</ele>
        <time>2019-08-23T15:49:10Z</time>
      </trkpt>
      <trkpt lat="48.33388" lon="-0.13802">
        <ele>180</ele>
        <time>2019-08-23T15:48:57Z</time>
      </trkpt>
      <trkpt lat="48.33374" lon="-0.13881">
        <ele>176</ele>
        <time>2019-08-23T15:48:44Z</time>
      </trkpt>
      <trkpt lat="48.33345" lon="-0.13948">
        <ele>170</ele>
        <time>2019-08-23T15:48:31Z</time>
      </trkpt>
      <trkpt lat="48.33288" lon="-0.14001">
        <ele>158</ele>
        <time>2019-08-23T15:48:16Z</time>
      </trkpt>
      <trkpt lat="48.33235" lon="-0.14078">
        <ele>153</ele>
        <time>2019-08-23T15:47:59Z</time>
      </trkpt>
      <trkpt lat="48.33142" lon="-0.14147">
        <ele>135</ele>
        <time>2019-08-23T15:47:34Z</time>
      </trkpt>
      <trkpt lat="48.33116" lon="-0.14244">
        <ele>130</ele>
        <time>2019-08-23T15:47:18Z</time>
      </trkpt>
      <trkpt lat="48.33115" lon="-0.14328">
        <ele>128</ele>
        <time>2019-08-23T15:47:05Z</time>
      </trkpt>
      <trkpt lat="48.33106" lon="-0.14432">
        <ele>123</ele>
        <time>2019-08-23T15:46:49Z</time>
      </trkpt>
      <trkpt lat="48.33113" lon="-0.14524">
        <ele>125</ele>
        <time>2019-08-23T15:46:34Z</time>
      </trkpt>
      <trkpt lat="48.33062" lon="-0.14621">
        <ele>117</ele>
        <time>2019-08-23T15:46:15Z</time>
      </trkpt>
      <trkpt lat="48.33067" lon="-0.14683">
        <ele>117</ele>
        <time>2019-08-23T15:46:06Z</time>
      </trkpt>
      <trkpt lat="48.33086" lon="-0.1481">
        <ele>117</ele>
        <time>2019-08-23T15:45:45Z</time>
      </trkpt>
      <trkpt lat="48.3308" lon="-0.14855">
        <ele>117</ele>
        <time>2019-08-23T15:45:38Z</time>
      </trkpt>
      <trkpt lat="48.33066" lon="-0.1489">
        <ele>119</ele>
        <time>2019-08-23T15:45:32Z</time>
      </trkpt>
      <trkpt lat="48.33062" lon="-0.14918">
        <ele>120</ele>
        <time>2019-08-23T15:45:27Z</time>
      </trkpt>
      <trkpt lat="48.33074" lon="-0.14944">
        <ele>120</ele>
        <time>2019-08-23T15:45:22Z</time>
      </trkpt>
      <trkpt lat="48.33077" lon="-0.15001">
        <ele>123</ele>
        <time>2019-08-23T15:45:14Z</time>
      </trkpt>
      <trkpt lat="48.33101" lon="-0.15083">
        <ele>135</ele>
        <time>2019-08-23T15:45:00Z</time>
      </trkpt>
      <trkpt lat="48.33113" lon="-0.15115">
        <ele>139</ele>
        <time>2019-08-23T15:44:54Z</time>
      </trkpt>
      <trkpt lat="48.33141" lon="-0.1515">
        <ele>138</ele>
        <time>2019-08-23T15:44:45Z</time>
      </trkpt>
      <trkpt lat="48.33182" lon="-0.15186">
        <ele>135</ele>
        <time>2019-08-23T15:44:34Z</time>
      </trkpt>
      <trkpt lat="48.33206" lon="-0.15213">
        <ele>134</ele>
        <time>2019-08-23T15:44:27Z</time>
      </trkpt>
      <trkpt lat="48.3323" lon="-0.1525">
        <ele>133</ele>
        <time>2019-08-23T15:44:19Z</time>
      </trkpt>
      <trkpt lat="48.33254" lon="-0.15312">
        <ele>132</ele>
        <time>2019-08-23T15:44:08Z</time>
      </trkpt>
      <trkpt lat="48.33268" lon="-0.15365">
        <ele>134</ele>
        <time>2019-08-23T15:43:59Z</time>
      </trkpt>
      <trkpt lat="48.33274" lon="-0.15482">
        <ele>138</ele>
        <time>2019-08-23T15:43:41Z</time>
      </trkpt>
      <trkpt lat="48.33274" lon="-0.15541">
        <ele>137</ele>
        <time>2019-08-23T15:43:32Z</time>
      </trkpt>
      <trkpt lat="48.3328" lon="-0.15631">
        <ele>132</ele>
        <time>2019-08-23T15:43:18Z</time>
      </trkpt>
      <trkpt lat="48.33278" lon="-0.15675">
        <ele>131</ele>
        <time>2019-08-23T15:43:11Z</time>
      </trkpt>
      <trkpt lat="48.33265" lon="-0.15724">
        <ele>133</ele>
        <time>2019-08-23T15:43:03Z</time>
      </trkpt>
      <trkpt lat="48.33285" lon="-0.15743">
        <ele>131</ele>
        <time>2019-08-23T15:42:57Z</time>
      </trkpt>
      <trkpt lat="48.33302" lon="-0.15752">
        <ele>130</ele>
        <time>2019-08-23T15:42:53Z</time>
      </trkpt>
      <trkpt lat="48.33307" lon="-0.1578">
        <ele>130</ele>
        <time>2019-08-23T15:42:49Z</time>
      </trkpt>
      <trkpt lat="48.33308" lon="-0.15813">
        <ele>131</ele>
        <time>2019-08-23T15:42:44Z</time>
      </trkpt>
      <trkpt lat="48.33305" lon="-0.15842">
        <ele>132</ele>
        <time>2019-08-23T15:42:39Z</time>
      </trkpt>
      <trkpt lat="48.33298" lon="-0.15874">
        <ele>133</ele>
        <time>2019-08-23T15:42:34Z</time>
      </trkpt>
      <trkpt lat="48.33297" lon="-0.15897">
        <ele>134</ele>
        <time>2019-08-23T15:42:30Z</time>
      </trkpt>
      <trkpt lat="48.333" lon="-0.15952">
        <ele>135</ele>
        <time>2019-08-23T15:42:22Z</time>
      </trkpt>
      <trkpt lat="48.33307" lon="-0.16003">
        <ele>135</ele>
        <time>2019-08-23T15:42:14Z</time>
      </trkpt>
      <trkpt lat="48.33324" lon="-0.16064">
        <ele>133</ele>
        <time>2019-08-23T15:42:03Z</time>
      </trkpt>
      <trkpt lat="48.33328" lon="-0.1611">
        <ele>136</ele>
        <time>2019-08-23T15:41:56Z</time>
      </trkpt>
      <trkpt lat="48.33321" lon="-0.1622">
        <ele>148</ele>
        <time>2019-08-23T15:41:39Z</time>
      </trkpt>
      <trkpt lat="48.33293" lon="-0.16395">
        <ele>152</ele>
        <time>2019-08-23T15:41:11Z</time>
      </trkpt>
      <trkpt lat="48.3329" lon="-0.1644">
        <ele>151</ele>
        <time>2019-08-23T15:41:04Z</time>
      </trkpt>
      <trkpt lat="48.33321" lon="-0.16676">
        <ele>150</ele>
        <time>2019-08-23T15:40:27Z</time>
      </trkpt>
      <trkpt lat="48.3335" lon="-0.16775">
        <ele>158</ele>
        <time>2019-08-23T15:40:10Z</time>
      </trkpt>
      <trkpt lat="48.33376" lon="-0.16803">
        <ele>155</ele>
        <time>2019-08-23T15:40:02Z</time>
      </trkpt>
      <trkpt lat="48.33417" lon="-0.16828">
        <ele>145</ele>
        <time>2019-08-23T15:39:52Z</time>
      </trkpt>
      <trkpt lat="48.33444" lon="-0.16863">
        <ele>146</ele>
        <time>2019-08-23T15:39:44Z</time>
      </trkpt>
      <trkpt lat="48.33476" lon="-0.16931">
        <ele>144</ele>
        <time>2019-08-23T15:39:31Z</time>
      </trkpt>
      <trkpt lat="48.33484" lon="-0.1699">
        <ele>144</ele>
        <time>2019-08-23T15:39:21Z</time>
      </trkpt>
      <trkpt lat="48.33479" lon="-0.17048">
        <ele>146</ele>
        <time>2019-08-23T15:39:12Z</time>
      </trkpt>
      <trkpt lat="48.33444" lon="-0.17174">
        <ele>154</ele>
        <time>2019-08-23T15:38:51Z</time>
      </trkpt>
      <trkpt lat="48.3344" lon="-0.17239">
        <ele>153</ele>
        <time>2019-08-23T15:38:41Z</time>
      </trkpt>
      <trkpt lat="48.33428" lon="-0.17284">
        <ele>153</ele>
        <time>2019-08-23T15:38:33Z</time>
      </trkpt>
      <trkpt lat="48.33428" lon="-0.17339">
        <ele>150</ele>
        <time>2019-08-23T15:38:25Z</time>
      </trkpt>
      <trkpt lat="48.33414" lon="-0.17429">
        <ele>150</ele>
        <time>2019-08-23T15:38:11Z</time>
      </trkpt>
      <trkpt lat="48.33425" lon="-0.17498">
        <ele>153</ele>
        <time>2019-08-23T15:38:00Z</time>
      </trkpt>
      <trkpt lat="48.33446" lon="-0.17568">
        <ele>150</ele>
        <time>2019-08-23T15:37:48Z</time>
      </trkpt>
      <trkpt lat="48.33452" lon="-0.17618">
        <ele>149</ele>
        <time>2019-08-23T15:37:40Z</time>
      </trkpt>
      <trkpt lat="48.33445" lon="-0.17696">
        <ele>150</ele>
        <time>2019-08-23T15:37:28Z</time>
      </trkpt>
      <trkpt lat="48.33457" lon="-0.17755">
        <ele>149</ele>
        <time>2019-08-23T15:37:18Z</time>
      </trkpt>
      <trkpt lat="48.33477" lon="-0.17822">
        <ele>147</ele>
        <time>2019-08-23T15:37:07Z</time>
      </trkpt>
      <trkpt lat="48.33498" lon="-0.17852">
        <ele>145</ele>
        <time>2019-08-23T15:37:00Z</time>
      </trkpt>
      <trkpt lat="48.33505" lon="-0.17881">
        <ele>145</ele>
        <time>2019-08-23T15:36:55Z</time>
      </trkpt>
      <trkpt lat="48.3351" lon="-0.17932">
        <ele>145</ele>
        <time>2019-08-23T15:36:47Z</time>
      </trkpt>
      <trkpt lat="48.33532" lon="-0.1804">
        <ele>146</ele>
        <time>2019-08-23T15:36:29Z</time>
      </trkpt>
      <trkpt lat="48.33521" lon="-0.18066">
        <ele>148</ele>
        <time>2019-08-23T15:36:25Z</time>
      </trkpt>
      <trkpt lat="48.33468" lon="-0.18114">
        <ele>153</ele>
        <time>2019-08-23T15:36:10Z</time>
      </trkpt>
      <trkpt lat="48.33482" lon="-0.18139">
        <ele>153</ele>
        <time>2019-08-23T15:36:05Z</time>
      </trkpt>
      <trkpt lat="48.33503" lon="-0.18186">
        <ele>150</ele>
        <time>2019-08-23T15:35:56Z</time>
      </trkpt>
      <trkpt lat="48.33541" lon="-0.1831">
        <ele>148</ele>
        <time>2019-08-23T15:35:35Z</time>
      </trkpt>
      <trkpt lat="48.33562" lon="-0.18366">
        <ele>147</ele>
        <time>2019-08-23T15:35:25Z</time>
      </trkpt>
      <trkpt lat="48.33587" lon="-0.18422">
        <ele>147</ele>
        <time>2019-08-23T15:35:15Z</time>
      </trkpt>
      <trkpt lat="48.33623" lon="-0.18442">
        <ele>145</ele>
        <time>2019-08-23T15:35:06Z</time>
      </trkpt>
      <trkpt lat="48.33656" lon="-0.18442">
        <ele>141</ele>
        <time>2019-08-23T15:34:58Z</time>
      </trkpt>
      <trkpt lat="48.33701" lon="-0.18435">
        <ele>143</ele>
        <time>2019-08-23T15:34:47Z</time>
      </trkpt>
      <trkpt lat="48.3373" lon="-0.18412">
        <ele>145</ele>
        <time>2019-08-23T15:34:40Z</time>
      </trkpt>
      <trkpt lat="48.33742" lon="-0.18392">
        <ele>145</ele>
        <time>2019-08-23T15:34:36Z</time>
      </trkpt>
      <trkpt lat="48.33764" lon="-0.1837">
        <ele>149</ele>
        <time>2019-08-23T15:34:29Z</time>
      </trkpt>
      <trkpt lat="48.33769" lon="-0.18421">
        <ele>149</ele>
        <time>2019-08-23T15:34:21Z</time>
      </trkpt>
      <trkpt lat="48.33744" lon="-0.18518">
        <ele>149</ele>
        <time>2019-08-23T15:34:05Z</time>
      </trkpt>
      <trkpt lat="48.33737" lon="-0.18633">
        <ele>153</ele>
        <time>2019-08-23T15:33:47Z</time>
      </trkpt>
      <trkpt lat="48.33722" lon="-0.18681">
        <ele>154</ele>
        <time>2019-08-23T15:33:39Z</time>
      </trkpt>
      <trkpt lat="48.33715" lon="-0.18742">
        <ele>156</ele>
        <time>2019-08-23T15:33:30Z</time>
      </trkpt>
      <trkpt lat="48.33734" lon="-0.18811">
        <ele>155</ele>
        <time>2019-08-23T15:33:18Z</time>
      </trkpt>
      <trkpt lat="48.33759" lon="-0.18888">
        <ele>153</ele>
        <time>2019-08-23T15:33:05Z</time>
      </trkpt>
      <trkpt lat="48.33813" lon="-0.18992">
        <ele>157</ele>
        <time>2019-08-23T15:32:44Z</time>
      </trkpt>
      <trkpt lat="48.33841" lon="-0.19074">
        <ele>154</ele>
        <time>2019-08-23T15:32:30Z</time>
      </trkpt>
      <trkpt lat="48.33856" lon="-0.19202">
        <ele>152</ele>
        <time>2019-08-23T15:32:10Z</time>
      </trkpt>
      <trkpt lat="48.33881" lon="-0.19278">
        <ele>150</ele>
        <time>2019-08-23T15:31:57Z</time>
      </trkpt>
      <trkpt lat="48.339" lon="-0.19278">
        <ele>150</ele>
        <time>2019-08-23T15:31:52Z</time>
      </trkpt>
      <trkpt lat="48.33916" lon="-0.19268">
        <ele>150</ele>
        <time>2019-08-23T15:31:48Z</time>
      </trkpt>
      <trkpt lat="48.33938" lon="-0.19299">
        <ele>153</ele>
        <time>2019-08-23T15:31:41Z</time>
      </trkpt>
      <trkpt lat="48.33958" lon="-0.19316">
        <ele>158</ele>
        <time>2019-08-23T15:31:36Z</time>
      </trkpt>
      <trkpt lat="48.33983" lon="-0.19313">
        <ele>164</ele>
        <time>2019-08-23T15:31:30Z</time>
      </trkpt>
      <trkpt lat="48.34003" lon="-0.19328">
        <ele>169</ele>
        <time>2019-08-23T15:31:25Z</time>
      </trkpt>
      <trkpt lat="48.3401" lon="-0.19309">
        <ele>169</ele>
        <time>2019-08-23T15:31:21Z</time>
      </trkpt>
      <trkpt lat="48.34046" lon="-0.19278">
        <ele>172</ele>
        <time>2019-08-23T15:31:11Z</time>
      </trkpt>
      <trkpt lat="48.34126" lon="-0.19263">
        <ele>175</ele>
        <time>2019-08-23T15:30:53Z</time>
      </trkpt>
      <trkpt lat="48.34205" lon="-0.19337">
        <ele>183</ele>
        <time>2019-08-23T15:30:31Z</time>
      </trkpt>
      <trkpt lat="48.34343" lon="-0.19434">
        <ele>188</ele>
        <time>2019-08-23T15:29:55Z</time>
      </trkpt>
      <trkpt lat="48.34459" lon="-0.19485">
        <ele>191</ele>
        <time>2019-08-23T15:29:27Z</time>
      </trkpt>
      <trkpt lat="48.34505" lon="-0.19488">
        <ele>193</ele>
        <time>2019-08-23T15:29:16Z</time>
      </trkpt>
      <trkpt lat="48.34561" lon="-0.19497">
        <ele>197</ele>
        <time>2019-08-23T15:29:03Z</time>
      </trkpt>
      <trkpt lat="48.34606" lon="-0.19516">
        <ele>201</ele>
        <time>2019-08-23T15:28:52Z</time>
      </trkpt>
      <trkpt lat="48.34759" lon="-0.19541">
        <ele>210</ele>
        <time>2019-08-23T15:28:16Z</time>
      </trkpt>
      <trkpt lat="48.3481" lon="-0.19568">
        <ele>210</ele>
        <time>2019-08-23T15:28:04Z</time>
      </trkpt>
      <trkpt lat="48.34798" lon="-0.19673">
        <ele>218</ele>
        <time>2019-08-23T15:27:47Z</time>
      </trkpt>
      <trkpt lat="48.34804" lon="-0.19702">
        <ele>219</ele>
        <time>2019-08-23T15:27:43Z</time>
      </trkpt>
      <trkpt lat="48.34815" lon="-0.19783">
        <ele>222</ele>
        <time>2019-08-23T15:27:30Z</time>
      </trkpt>
      <trkpt lat="48.34838" lon="-0.19857">
        <ele>226</ele>
        <time>2019-08-23T15:27:17Z</time>
      </trkpt>
      <trkpt lat="48.34863" lon="-0.19893">
        <ele>228</ele>
        <time>2019-08-23T15:27:09Z</time>
      </trkpt>
      <trkpt lat="48.34915" lon="-0.19987">
        <ele>231</ele>
        <time>2019-08-23T15:26:50Z</time>
      </trkpt>
      <trkpt lat="48.34958" lon="-0.20038">
        <ele>228</ele>
        <time>2019-08-23T15:26:37Z</time>
      </trkpt>
      <trkpt lat="48.34972" lon="-0.20076">
        <ele>227</ele>
        <time>2019-08-23T15:26:30Z</time>
      </trkpt>
      <trkpt lat="48.34986" lon="-0.20125">
        <ele>225</ele>
        <time>2019-08-23T15:26:22Z</time>
      </trkpt>
      <trkpt lat="48.35004" lon="-0.20165">
        <ele>222</ele>
        <time>2019-08-23T15:26:15Z</time>
      </trkpt>
      <trkpt lat="48.35073" lon="-0.20266">
        <ele>210</ele>
        <time>2019-08-23T15:25:52Z</time>
      </trkpt>
      <trkpt lat="48.35089" lon="-0.20336">
        <ele>205</ele>
        <time>2019-08-23T15:25:41Z</time>
      </trkpt>
      <trkpt lat="48.35095" lon="-0.20461">
        <ele>193</ele>
        <time>2019-08-23T15:25:21Z</time>
      </trkpt>
      <trkpt lat="48.35121" lon="-0.20489">
        <ele>191</ele>
        <time>2019-08-23T15:25:14Z</time>
      </trkpt>
      <trkpt lat="48.35118" lon="-0.20491">
        <ele>186.66015625</ele>
      </trkpt>
      <trkpt lat="48.35132" lon="-0.20443">
        <ele>188.66796875</ele>
      </trkpt>
      <trkpt lat="48.35153" lon="-0.20342">
        <ele>190.17578125</ele>
      </trkpt>
      <trkpt lat="48.35196" lon="-0.20272">
        <ele>189.90625</ele>
      </trkpt>
      <trkpt lat="48.3525" lon="-0.20229">
        <ele>192.59765625</ele>
      </trkpt>
      <trkpt lat="48.35347" lon="-0.20229">
        <ele>194.375</ele>
      </trkpt>
      <trkpt lat="48.35547" lon="-0.2019">
        <ele>200.40234375</ele>
      </trkpt>
      <trkpt lat="48.35652" lon="-0.20155">
        <ele>206.68359375</ele>
      </trkpt>
      <trkpt lat="48.35746" lon="-0.20034">
        <ele>216.015625</ele>
      </trkpt>
      <trkpt lat="48.35824" lon="-0.19863">
        <ele>218.38671875</ele>
      </trkpt>
      <trkpt lat="48.35843" lon="-0.19539">
        <ele>214.578125</ele>
      </trkpt>
      <trkpt lat="48.35867" lon="-0.19036">
        <ele>223.16796875</ele>
      </trkpt>
      <trkpt lat="48.359" lon="-0.18284">
        <ele>233.39453125</ele>
      </trkpt>
      <trkpt lat="48.35927" lon="-0.17769">
        <ele>218.53515625</ele>
      </trkpt>
      <trkpt lat="48.35932" lon="-0.17668">
        <ele>219.18359375</ele>
      </trkpt>
      <trkpt lat="48.359" lon="-0.17539">
        <ele>222.16015625</ele>
      </trkpt>
      <trkpt lat="48.35851" lon="-0.17356">
        <ele>222.140625</ele>
      </trkpt>
      <trkpt lat="48.35897" lon="-0.17313">
        <ele>227.23828125</ele>
      </trkpt>
      <trkpt lat="48.35935" lon="-0.17239">
        <ele>231.09765625</ele>
      </trkpt>
      <trkpt lat="48.35956" lon="-0.17165">
        <ele>232.8671875</ele>
      </trkpt>
      <trkpt lat="48.35991" lon="-0.17095">
        <ele>237.1640625</ele>
      </trkpt>
      <trkpt lat="48.35998" lon="-0.17078">
        <ele>245</ele>
        <time>2019-08-23T13:36:32Z</time>
      </trkpt>
      <trkpt lat="48.36" lon="-0.17026">
        <ele>244</ele>
        <time>2019-08-23T13:36:24Z</time>
      </trkpt>
      <trkpt lat="48.35998" lon="-0.16984">
        <ele>243</ele>
        <time>2019-08-23T13:36:18Z</time>
      </trkpt>
      <trkpt lat="48.3599" lon="-0.16934">
        <ele>244</ele>
        <time>2019-08-23T13:36:10Z</time>
      </trkpt>
      <trkpt lat="48.35989" lon="-0.16883">
        <ele>246</ele>
        <time>2019-08-23T13:36:02Z</time>
      </trkpt>
      <trkpt lat="48.35991" lon="-0.16848">
        <ele>247</ele>
        <time>2019-08-23T13:35:56Z</time>
      </trkpt>
      <trkpt lat="48.35988" lon="-0.16779">
        <ele>249</ele>
        <time>2019-08-23T13:35:46Z</time>
      </trkpt>
      <trkpt lat="48.35963" lon="-0.16667">
        <ele>253</ele>
        <time>2019-08-23T13:35:27Z</time>
      </trkpt>
      <trkpt lat="48.3591" lon="-0.16491">
        <ele>257</ele>
        <time>2019-08-23T13:34:57Z</time>
      </trkpt>
      <trkpt lat="48.35882" lon="-0.16433">
        <ele>256</ele>
        <time>2019-08-23T13:34:46Z</time>
      </trkpt>
      <trkpt lat="48.3587" lon="-0.16384">
        <ele>256</ele>
        <time>2019-08-23T13:34:38Z</time>
      </trkpt>
      <trkpt lat="48.35839" lon="-0.16339">
        <ele>253</ele>
        <time>2019-08-23T13:34:28Z</time>
      </trkpt>
      <trkpt lat="48.35825" lon="-0.16305">
        <ele>250</ele>
        <time>2019-08-23T13:34:22Z</time>
      </trkpt>
      <trkpt lat="48.35749" lon="-0.16266">
        <ele>245</ele>
        <time>2019-08-23T13:34:03Z</time>
      </trkpt>
      <trkpt lat="48.35642" lon="-0.16294">
        <ele>253</ele>
        <time>2019-08-23T13:33:38Z</time>
      </trkpt>
      <trkpt lat="48.35595" lon="-0.16221">
        <ele>256</ele>
        <time>2019-08-23T13:33:22Z</time>
      </trkpt>
      <trkpt lat="48.35534" lon="-0.16157">
        <ele>259</ele>
        <time>2019-08-23T13:33:05Z</time>
      </trkpt>
      <trkpt lat="48.35452" lon="-0.1609">
        <ele>263</ele>
        <time>2019-08-23T13:32:43Z</time>
      </trkpt>
      <trkpt lat="48.35407" lon="-0.16047">
        <ele>263</ele>
        <time>2019-08-23T13:32:30Z</time>
      </trkpt>
      <trkpt lat="48.3534" lon="-0.16019">
        <ele>264</ele>
        <time>2019-08-23T13:32:14Z</time>
      </trkpt>
      <trkpt lat="48.35256" lon="-0.15966">
        <ele>266</ele>
        <time>2019-08-23T13:31:53Z</time>
      </trkpt>
      <trkpt lat="48.35217" lon="-0.15912">
        <ele>265</ele>
        <time>2019-08-23T13:31:40Z</time>
      </trkpt>
      <trkpt lat="48.35132" lon="-0.15822">
        <ele>264</ele>
        <time>2019-08-23T13:31:16Z</time>
      </trkpt>
      <trkpt lat="48.35077" lon="-0.15794">
        <ele>265</ele>
        <time>2019-08-23T13:31:03Z</time>
      </trkpt>
      <trkpt lat="48.35027" lon="-0.15721">
        <ele>263</ele>
        <time>2019-08-23T13:30:46Z</time>
      </trkpt>
      <trkpt lat="48.34986" lon="-0.15654">
        <ele>260</ele>
        <time>2019-08-23T13:30:32Z</time>
      </trkpt>
      <trkpt lat="48.34916" lon="-0.15513">
        <ele>251</ele>
        <time>2019-08-23T13:30:05Z</time>
      </trkpt>
      <trkpt lat="48.34865" lon="-0.15425">
        <ele>243</ele>
        <time>2019-08-23T13:29:47Z</time>
      </trkpt>
      <trkpt lat="48.34816" lon="-0.15371">
        <ele>241</ele>
        <time>2019-08-23T13:29:33Z</time>
      </trkpt>
      <trkpt lat="48.34731" lon="-0.1532">
        <ele>245</ele>
        <time>2019-08-23T13:29:11Z</time>
      </trkpt>
      <trkpt lat="48.3449" lon="-0.14933">
        <ele>240</ele>
        <time>2019-08-23T13:27:49Z</time>
      </trkpt>
      <trkpt lat="48.34428" lon="-0.14811">
        <ele>239</ele>
        <time>2019-08-23T13:27:25Z</time>
      </trkpt>
      <trkpt lat="48.34614" lon="-0.14779">
        <ele>239</ele>
        <time>2019-08-23T13:26:41Z</time>
      </trkpt>
      <trkpt lat="48.34664" lon="-0.14749">
        <ele>243</ele>
        <time>2019-08-23T13:26:29Z</time>
      </trkpt>
      <trkpt lat="48.34717" lon="-0.14693">
        <ele>243</ele>
        <time>2019-08-23T13:26:14Z</time>
      </trkpt>
      <trkpt lat="48.34765" lon="-0.14652">
        <ele>243</ele>
        <time>2019-08-23T13:26:01Z</time>
      </trkpt>
      <trkpt lat="48.34824" lon="-0.14622">
        <ele>242</ele>
        <time>2019-08-23T13:25:46Z</time>
      </trkpt>
      <trkpt lat="48.34869" lon="-0.14614">
        <ele>241</ele>
        <time>2019-08-23T13:25:36Z</time>
      </trkpt>
      <trkpt lat="48.34909" lon="-0.14627">
        <ele>240</ele>
        <time>2019-08-23T13:25:26Z</time>
      </trkpt>
      <trkpt lat="48.34952" lon="-0.14674">
        <ele>240</ele>
        <time>2019-08-23T13:25:14Z</time>
      </trkpt>
      <trkpt lat="48.34985" lon="-0.14717">
        <ele>239</ele>
        <time>2019-08-23T13:25:03Z</time>
      </trkpt>
      <trkpt lat="48.35039" lon="-0.14732">
        <ele>240</ele>
        <time>2019-08-23T13:24:51Z</time>
      </trkpt>
      <trkpt lat="48.35026" lon="-0.14446">
        <ele>236</ele>
        <time>2019-08-23T13:24:06Z</time>
      </trkpt>
      <trkpt lat="48.35029" lon="-0.14251">
        <ele>236</ele>
        <time>2019-08-23T13:23:36Z</time>
      </trkpt>
      <trkpt lat="48.35023" lon="-0.14122">
        <ele>236</ele>
        <time>2019-08-23T13:23:16Z</time>
      </trkpt>
      <trkpt lat="48.34975" lon="-0.14086">
        <ele>238</ele>
        <time>2019-08-23T13:23:03Z</time>
      </trkpt>
      <trkpt lat="48.34923" lon="-0.14067">
        <ele>240</ele>
        <time>2019-08-23T13:22:51Z</time>
      </trkpt>
      <trkpt lat="48.34862" lon="-0.14079">
        <ele>241</ele>
        <time>2019-08-23T13:22:36Z</time>
      </trkpt>
      <trkpt lat="48.34855" lon="-0.14028">
        <ele>243</ele>
        <time>2019-08-23T13:22:28Z</time>
      </trkpt>
      <trkpt lat="48.34853" lon="-0.13552">
        <ele>232</ele>
        <time>2019-08-23T13:21:14Z</time>
      </trkpt>
      <trkpt lat="48.34856" lon="-0.13394">
        <ele>230</ele>
        <time>2019-08-23T13:20:50Z</time>
      </trkpt>
      <trkpt lat="48.34921" lon="-0.13396">
        <ele>231</ele>
        <time>2019-08-23T13:20:35Z</time>
      </trkpt>
      <trkpt lat="48.34951" lon="-0.13403">
        <ele>232</ele>
        <time>2019-08-23T13:20:28Z</time>
      </trkpt>
      <trkpt lat="48.34997" lon="-0.13423">
        <ele>233</ele>
        <time>2019-08-23T13:20:16Z</time>
      </trkpt>
      <trkpt lat="48.35034" lon="-0.13432">
        <ele>230</ele>
        <time>2019-08-23T13:20:08Z</time>
      </trkpt>
      <trkpt lat="48.3507" lon="-0.13459">
        <ele>228</ele>
        <time>2019-08-23T13:19:58Z</time>
      </trkpt>
      <trkpt lat="48.35105" lon="-0.13503">
        <ele>225</ele>
        <time>2019-08-23T13:19:48Z</time>
      </trkpt>
      <trkpt lat="48.35131" lon="-0.13523">
        <ele>223</ele>
        <time>2019-08-23T13:19:41Z</time>
      </trkpt>
      <trkpt lat="48.35166" lon="-0.13532">
        <ele>222</ele>
        <time>2019-08-23T13:19:33Z</time>
      </trkpt>
      <trkpt lat="48.35284" lon="-0.13555">
        <ele>223</ele>
        <time>2019-08-23T13:19:05Z</time>
      </trkpt>
      <trkpt lat="48.3534" lon="-0.13569">
        <ele>225</ele>
        <time>2019-08-23T13:18:52Z</time>
      </trkpt>
      <trkpt lat="48.35388" lon="-0.13604">
        <ele>228</ele>
        <time>2019-08-23T13:18:39Z</time>
      </trkpt>
      <trkpt lat="48.35462" lon="-0.1367">
        <ele>232</ele>
        <time>2019-08-23T13:18:19Z</time>
      </trkpt>
      <trkpt lat="48.3557" lon="-0.13734">
        <ele>234</ele>
        <time>2019-08-23T13:17:52Z</time>
      </trkpt>
      <trkpt lat="48.35597" lon="-0.13756">
        <ele>234</ele>
        <time>2019-08-23T13:17:45Z</time>
      </trkpt>
      <trkpt lat="48.35645" lon="-0.13802">
        <ele>232</ele>
        <time>2019-08-23T13:17:31Z</time>
      </trkpt>
      <trkpt lat="48.35643" lon="-0.13737">
        <ele>232</ele>
        <time>2019-08-23T13:17:21Z</time>
      </trkpt>
      <trkpt lat="48.35669" lon="-0.13618">
        <ele>232</ele>
        <time>2019-08-23T13:17:02Z</time>
      </trkpt>
      <trkpt lat="48.35691" lon="-0.13503">
        <ele>232</ele>
        <time>2019-08-23T13:16:43Z</time>
      </trkpt>
      <trkpt lat="48.35723" lon="-0.135">
        <ele>230</ele>
        <time>2019-08-23T13:16:36Z</time>
      </trkpt>
      <trkpt lat="48.35773" lon="-0.13485">
        <ele>228</ele>
        <time>2019-08-23T13:16:24Z</time>
      </trkpt>
      <trkpt lat="48.35799" lon="-0.13471">
        <ele>226</ele>
        <time>2019-08-23T13:16:17Z</time>
      </trkpt>
      <trkpt lat="48.35819" lon="-0.13449">
        <ele>225</ele>
        <time>2019-08-23T13:16:12Z</time>
      </trkpt>
      <trkpt lat="48.35835" lon="-0.13403">
        <ele>224</ele>
        <time>2019-08-23T13:16:04Z</time>
      </trkpt>
      <trkpt lat="48.35843" lon="-0.13341">
        <ele>222</ele>
        <time>2019-08-23T13:15:54Z</time>
      </trkpt>
      <trkpt lat="48.35857" lon="-0.13283">
        <ele>219</ele>
        <time>2019-08-23T13:15:44Z</time>
      </trkpt>
      <trkpt lat="48.35877" lon="-0.1325">
        <ele>216</ele>
        <time>2019-08-23T13:15:37Z</time>
      </trkpt>
      <trkpt lat="48.35886" lon="-0.13212">
        <ele>216</ele>
        <time>2019-08-23T13:15:31Z</time>
      </trkpt>
      <trkpt lat="48.359" lon="-0.12956">
        <ele>218</ele>
        <time>2019-08-23T13:14:51Z</time>
      </trkpt>
      <trkpt lat="48.3596" lon="-0.1273">
        <ele>212</ele>
        <time>2019-08-23T13:14:13Z</time>
      </trkpt>
      <trkpt lat="48.35966" lon="-0.1269">
        <ele>210</ele>
        <time>2019-08-23T13:14:07Z</time>
      </trkpt>
      <trkpt lat="48.35967" lon="-0.12649">
        <ele>209</ele>
        <time>2019-08-23T13:14:01Z</time>
      </trkpt>
      <trkpt lat="48.35962" lon="-0.1245">
        <ele>208</ele>
        <time>2019-08-23T13:13:30Z</time>
      </trkpt>
      <trkpt lat="48.35966" lon="-0.12412">
        <ele>208</ele>
        <time>2019-08-23T13:13:24Z</time>
      </trkpt>
      <trkpt lat="48.36034" lon="-0.12176">
        <ele>203</ele>
        <time>2019-08-23T13:12:44Z</time>
      </trkpt>
      <trkpt lat="48.3605" lon="-0.12171">
        <ele>203</ele>
        <time>2019-08-23T13:12:40Z</time>
      </trkpt>
      <trkpt lat="48.36059" lon="-0.12161">
        <ele>202</ele>
        <time>2019-08-23T13:12:37Z</time>
      </trkpt>
      <trkpt lat="48.36062" lon="-0.12095">
        <ele>202</ele>
        <time>2019-08-23T13:12:27Z</time>
      </trkpt>
      <trkpt lat="48.36068" lon="-0.12075">
        <ele>202</ele>
        <time>2019-08-23T13:12:24Z</time>
      </trkpt>
      <trkpt lat="48.36073" lon="-0.12045">
        <ele>202</ele>
        <time>2019-08-23T13:12:19Z</time>
      </trkpt>
      <trkpt lat="48.36082" lon="-0.11951">
        <ele>202</ele>
        <time>2019-08-23T13:12:04Z</time>
      </trkpt>
      <trkpt lat="48.36096" lon="-0.11728">
        <ele>198</ele>
        <time>2019-08-23T13:11:30Z</time>
      </trkpt>
      <trkpt lat="48.35981" lon="-0.11754">
        <ele>208</ele>
        <time>2019-08-23T13:11:02Z</time>
      </trkpt>
      <trkpt lat="48.35997" lon="-0.11631">
        <ele>208</ele>
        <time>2019-08-23T13:10:43Z</time>
      </trkpt>
      <trkpt lat="48.36005" lon="-0.11514">
        <ele>209</ele>
        <time>2019-08-23T13:10:25Z</time>
      </trkpt>
      <trkpt lat="48.36035" lon="-0.11317">
        <ele>208</ele>
        <time>2019-08-23T13:09:53Z</time>
      </trkpt>
      <trkpt lat="48.36052" lon="-0.1102">
        <ele>206</ele>
        <time>2019-08-23T13:09:07Z</time>
      </trkpt>
      <trkpt lat="48.36042" lon="-0.10953">
        <ele>207</ele>
        <time>2019-08-23T13:08:56Z</time>
      </trkpt>
      <trkpt lat="48.36041" lon="-0.10901">
        <ele>208</ele>
        <time>2019-08-23T13:08:48Z</time>
      </trkpt>
      <trkpt lat="48.36046" lon="-0.10668">
        <ele>212</ele>
        <time>2019-08-23T13:08:12Z</time>
      </trkpt>
      <trkpt lat="48.36064" lon="-0.10613">
        <ele>210</ele>
        <time>2019-08-23T13:08:03Z</time>
      </trkpt>
      <trkpt lat="48.36069" lon="-0.10581">
        <ele>210</ele>
        <time>2019-08-23T13:07:58Z</time>
      </trkpt>
      <trkpt lat="48.36068" lon="-0.10452">
        <ele>213</ele>
        <time>2019-08-23T13:07:37Z</time>
      </trkpt>
      <trkpt lat="48.36074" lon="-0.10393">
        <ele>214</ele>
        <time>2019-08-23T13:07:28Z</time>
      </trkpt>
      <trkpt lat="48.36087" lon="-0.10347">
        <ele>215</ele>
        <time>2019-08-23T13:07:20Z</time>
      </trkpt>
      <trkpt lat="48.36104" lon="-0.10308">
        <ele>212</ele>
        <time>2019-08-23T13:07:13Z</time>
      </trkpt>
      <trkpt lat="48.36154" lon="-0.10172">
        <ele>203</ele>
        <time>2019-08-23T13:06:49Z</time>
      </trkpt>
      <trkpt lat="48.36171" lon="-0.10063">
        <ele>199</ele>
        <time>2019-08-23T13:06:32Z</time>
      </trkpt>
      <trkpt lat="48.3618" lon="-0.10043">
        <ele>196</ele>
        <time>2019-08-23T13:06:28Z</time>
      </trkpt>
      <trkpt lat="48.36189" lon="-0.10037">
        <ele>194</ele>
        <time>2019-08-23T13:06:26Z</time>
      </trkpt>
      <trkpt lat="48.36191" lon="-0.10062">
        <ele>194</ele>
        <time>2019-08-23T13:06:22Z</time>
      </trkpt>
      <trkpt lat="48.36201" lon="-0.10066">
        <ele>191</ele>
        <time>2019-08-23T13:06:19Z</time>
      </trkpt>
      <trkpt lat="48.36332" lon="-0.10029">
        <ele>170</ele>
        <time>2019-08-23T13:05:48Z</time>
      </trkpt>
      <trkpt lat="48.36358" lon="-0.10007">
        <ele>171</ele>
        <time>2019-08-23T13:05:41Z</time>
      </trkpt>
      <trkpt lat="48.36373" lon="-0.0998">
        <ele>172</ele>
        <time>2019-08-23T13:05:36Z</time>
      </trkpt>
      <trkpt lat="48.36388" lon="-0.09959">
        <ele>173</ele>
        <time>2019-08-23T13:05:31Z</time>
      </trkpt>
      <trkpt lat="48.36406" lon="-0.09955">
        <ele>174</ele>
        <time>2019-08-23T13:05:27Z</time>
      </trkpt>
      <trkpt lat="48.36429" lon="-0.09959">
        <ele>176</ele>
        <time>2019-08-23T13:05:21Z</time>
      </trkpt>
      <trkpt lat="48.3645" lon="-0.09972">
        <ele>177</ele>
        <time>2019-08-23T13:05:16Z</time>
      </trkpt>
      <trkpt lat="48.36472" lon="-0.09966">
        <ele>178</ele>
        <time>2019-08-23T13:05:11Z</time>
      </trkpt>
      <trkpt lat="48.36489" lon="-0.09938">
        <ele>179</ele>
        <time>2019-08-23T13:05:05Z</time>
      </trkpt>
      <trkpt lat="48.36502" lon="-0.09844">
        <ele>178</ele>
        <time>2019-08-23T13:04:50Z</time>
      </trkpt>
      <trkpt lat="48.36511" lon="-0.0982">
        <ele>178</ele>
        <time>2019-08-23T13:04:46Z</time>
      </trkpt>
      <trkpt lat="48.36533" lon="-0.09807">
        <ele>178</ele>
        <time>2019-08-23T13:04:40Z</time>
      </trkpt>
      <trkpt lat="48.36559" lon="-0.09787">
        <ele>179</ele>
        <time>2019-08-23T13:04:33Z</time>
      </trkpt>
      <trkpt lat="48.36595" lon="-0.09755">
        <ele>179</ele>
        <time>2019-08-23T13:04:24Z</time>
      </trkpt>
      <trkpt lat="48.36675" lon="-0.09691">
        <ele>183</ele>
        <time>2019-08-23T13:04:03Z</time>
      </trkpt>
      <trkpt lat="48.36717" lon="-0.0961">
        <ele>184</ele>
        <time>2019-08-23T13:03:47Z</time>
      </trkpt>
      <trkpt lat="48.36733" lon="-0.09589">
        <ele>184</ele>
        <time>2019-08-23T13:03:42Z</time>
      </trkpt>
      <trkpt lat="48.36729" lon="-0.09568">
        <ele>184</ele>
        <time>2019-08-23T13:03:38Z</time>
      </trkpt>
      <trkpt lat="48.36642" lon="-0.09285">
        <ele>183</ele>
        <time>2019-08-23T13:02:50Z</time>
      </trkpt>
      <trkpt lat="48.36583" lon="-0.09029">
        <ele>182</ele>
        <time>2019-08-23T13:02:08Z</time>
      </trkpt>
      <trkpt lat="48.36566" lon="-0.08788">
        <ele>180</ele>
        <time>2019-08-23T13:01:30Z</time>
      </trkpt>
      <trkpt lat="48.3655" lon="-0.08662">
        <ele>179</ele>
        <time>2019-08-23T13:01:10Z</time>
      </trkpt>
      <trkpt lat="48.36545" lon="-0.08593">
        <ele>178</ele>
        <time>2019-08-23T13:01:00Z</time>
      </trkpt>
      <trkpt lat="48.36551" lon="-0.08568">
        <ele>177</ele>
        <time>2019-08-23T13:00:55Z</time>
      </trkpt>
      <trkpt lat="48.36567" lon="-0.08533">
        <ele>174</ele>
        <time>2019-08-23T13:00:49Z</time>
      </trkpt>
      <trkpt lat="48.36595" lon="-0.08513">
        <ele>172</ele>
        <time>2019-08-23T13:00:42Z</time>
      </trkpt>
      <trkpt lat="48.36766" lon="-0.08483">
        <ele>163</ele>
        <time>2019-08-23T13:00:01Z</time>
      </trkpt>
      <trkpt lat="48.36778" lon="-0.08471">
        <ele>163</ele>
        <time>2019-08-23T12:59:58Z</time>
      </trkpt>
      <trkpt lat="48.36743" lon="-0.08439">
        <ele>162</ele>
        <time>2019-08-23T12:59:48Z</time>
      </trkpt>
      <trkpt lat="48.36724" lon="-0.08399">
        <ele>161</ele>
        <time>2019-08-23T12:59:41Z</time>
      </trkpt>
      <trkpt lat="48.36702" lon="-0.08343">
        <ele>160</ele>
        <time>2019-08-23T12:59:31Z</time>
      </trkpt>
      <trkpt lat="48.36648" lon="-0.0819">
        <ele>153</ele>
        <time>2019-08-23T12:59:04Z</time>
      </trkpt>
      <trkpt lat="48.36709" lon="-0.08085">
        <ele>146</ele>
        <time>2019-08-23T12:58:42Z</time>
      </trkpt>
      <trkpt lat="48.36769" lon="-0.08014">
        <ele>141</ele>
        <time>2019-08-23T12:58:24Z</time>
      </trkpt>
      <trkpt lat="48.36795" lon="-0.07959">
        <ele>135</ele>
        <time>2019-08-23T12:58:14Z</time>
      </trkpt>
      <trkpt lat="48.36817" lon="-0.07938">
        <ele>131</ele>
        <time>2019-08-23T12:58:08Z</time>
      </trkpt>
      <trkpt lat="48.36861" lon="-0.07902">
        <ele>122</ele>
        <time>2019-08-23T12:57:56Z</time>
      </trkpt>
      <trkpt lat="48.36901" lon="-0.0789">
        <ele>117</ele>
        <time>2019-08-23T12:57:47Z</time>
      </trkpt>
      <trkpt lat="48.36937" lon="-0.07905">
        <ele>119</ele>
        <time>2019-08-23T12:57:38Z</time>
      </trkpt>
      <trkpt lat="48.36971" lon="-0.07903">
        <ele>123</ele>
        <time>2019-08-23T12:57:30Z</time>
      </trkpt>
      <trkpt lat="48.36986" lon="-0.07836">
        <ele>120</ele>
        <time>2019-08-23T12:57:19Z</time>
      </trkpt>
      <trkpt lat="48.37017" lon="-0.07778">
        <ele>118</ele>
        <time>2019-08-23T12:57:07Z</time>
      </trkpt>
      <trkpt lat="48.37068" lon="-0.07737">
        <ele>117</ele>
        <time>2019-08-23T12:56:54Z</time>
      </trkpt>
      <trkpt lat="48.37124" lon="-0.07714">
        <ele>120</ele>
        <time>2019-08-23T12:56:40Z</time>
      </trkpt>
      <trkpt lat="48.37191" lon="-0.07691">
        <ele>123</ele>
        <time>2019-08-23T12:56:24Z</time>
      </trkpt>
      <trkpt lat="48.37244" lon="-0.07714">
        <ele>130</ele>
        <time>2019-08-23T12:56:11Z</time>
      </trkpt>
      <trkpt lat="48.37317" lon="-0.07765">
        <ele>132</ele>
        <time>2019-08-23T12:55:53Z</time>
      </trkpt>
      <trkpt lat="48.37422" lon="-0.07829">
        <ele>138</ele>
        <time>2019-08-23T12:55:26Z</time>
      </trkpt>
      <trkpt lat="48.37498" lon="-0.07834">
        <ele>143</ele>
        <time>2019-08-23T12:55:08Z</time>
      </trkpt>
      <trkpt lat="48.37557" lon="-0.07877">
        <ele>151</ele>
        <time>2019-08-23T12:54:53Z</time>
      </trkpt>
      <trkpt lat="48.37657" lon="-0.07892">
        <ele>154</ele>
        <time>2019-08-23T12:54:30Z</time>
      </trkpt>
      <trkpt lat="48.37806" lon="-0.07971">
        <ele>156</ele>
        <time>2019-08-23T12:53:53Z</time>
      </trkpt>
      <trkpt lat="48.37875" lon="-0.08149">
        <ele>168</ele>
        <time>2019-08-23T12:53:21Z</time>
      </trkpt>
      <trkpt lat="48.37925" lon="-0.0815">
        <ele>169</ele>
        <time>2019-08-23T12:53:09Z</time>
      </trkpt>
      <trkpt lat="48.37999" lon="-0.08156">
        <ele>172</ele>
        <time>2019-08-23T12:52:52Z</time>
      </trkpt>
      <trkpt lat="48.38015" lon="-0.08122">
        <ele>171</ele>
        <time>2019-08-23T12:52:45Z</time>
      </trkpt>
      <trkpt lat="48.38047" lon="-0.08111">
        <ele>172</ele>
        <time>2019-08-23T12:52:38Z</time>
      </trkpt>
      <trkpt lat="48.38135" lon="-0.08116">
        <ele>175</ele>
        <time>2019-08-23T12:52:17Z</time>
      </trkpt>
      <trkpt lat="48.38165" lon="-0.08102">
        <ele>176</ele>
        <time>2019-08-23T12:52:10Z</time>
      </trkpt>
      <trkpt lat="48.38218" lon="-0.08034">
        <ele>175</ele>
        <time>2019-08-23T12:51:54Z</time>
      </trkpt>
      <trkpt lat="48.38244" lon="-0.08011">
        <ele>174</ele>
        <time>2019-08-23T12:51:46Z</time>
      </trkpt>
      <trkpt lat="48.38283" lon="-0.07993">
        <ele>173</ele>
        <time>2019-08-23T12:51:37Z</time>
      </trkpt>
      <trkpt lat="48.3839" lon="-0.07936">
        <ele>169</ele>
        <time>2019-08-23T12:51:10Z</time>
      </trkpt>
      <trkpt lat="48.38487" lon="-0.07888">
        <ele>166</ele>
        <time>2019-08-23T12:50:47Z</time>
      </trkpt>
      <trkpt lat="48.38539" lon="-0.07876">
        <ele>166</ele>
        <time>2019-08-23T12:50:34Z</time>
      </trkpt>
      <trkpt lat="48.38588" lon="-0.07868">
        <ele>166</ele>
        <time>2019-08-23T12:50:23Z</time>
      </trkpt>
      <trkpt lat="48.38634" lon="-0.07856">
        <ele>169</ele>
        <time>2019-08-23T12:50:12Z</time>
      </trkpt>
      <trkpt lat="48.38683" lon="-0.07838">
        <ele>173</ele>
        <time>2019-08-23T12:50:00Z</time>
      </trkpt>
      <trkpt lat="48.38753" lon="-0.078">
        <ele>179</ele>
        <time>2019-08-23T12:49:43Z</time>
      </trkpt>
      <trkpt lat="48.38858" lon="-0.07679">
        <ele>182</ele>
        <time>2019-08-23T12:49:12Z</time>
      </trkpt>
      <trkpt lat="48.38904" lon="-0.07622">
        <ele>183</ele>
        <time>2019-08-23T12:48:58Z</time>
      </trkpt>
      <trkpt lat="48.39006" lon="-0.07527">
        <ele>181</ele>
        <time>2019-08-23T12:48:30Z</time>
      </trkpt>
      <trkpt lat="48.38951" lon="-0.07418">
        <ele>179</ele>
        <time>2019-08-23T12:48:09Z</time>
      </trkpt>
      <trkpt lat="48.38851" lon="-0.07145">
        <ele>165</ele>
        <time>2019-08-23T12:47:20Z</time>
      </trkpt>
      <trkpt lat="48.38752" lon="-0.06861">
        <ele>153</ele>
        <time>2019-08-23T12:46:31Z</time>
      </trkpt>
      <trkpt lat="48.3869" lon="-0.06662">
        <ele>148</ele>
        <time>2019-08-23T12:45:57Z</time>
      </trkpt>
      <trkpt lat="48.38585" lon="-0.06399">
        <ele>145</ele>
        <time>2019-08-23T12:45:09Z</time>
      </trkpt>
      <trkpt lat="48.38558" lon="-0.06368">
        <ele>145</ele>
        <time>2019-08-23T12:45:01Z</time>
      </trkpt>
      <trkpt lat="48.38495" lon="-0.0634">
        <ele>145</ele>
        <time>2019-08-23T12:44:46Z</time>
      </trkpt>
      <trkpt lat="48.38371" lon="-0.06298">
        <ele>141</ele>
        <time>2019-08-23T12:44:16Z</time>
      </trkpt>
      <trkpt lat="48.38324" lon="-0.06219">
        <ele>142</ele>
        <time>2019-08-23T12:44:00Z</time>
      </trkpt>
      <trkpt lat="48.38284" lon="-0.06076">
        <ele>141</ele>
        <time>2019-08-23T12:43:35Z</time>
      </trkpt>
      <trkpt lat="48.38268" lon="-0.06006">
        <ele>137</ele>
        <time>2019-08-23T12:43:24Z</time>
      </trkpt>
      <trkpt lat="48.3826" lon="-0.05932">
        <ele>135</ele>
        <time>2019-08-23T12:43:12Z</time>
      </trkpt>
      <trkpt lat="48.38256" lon="-0.05859">
        <ele>134</ele>
        <time>2019-08-23T12:43:01Z</time>
      </trkpt>
      <trkpt lat="48.38253" lon="-0.05724">
        <ele>128</ele>
        <time>2019-08-23T12:42:40Z</time>
      </trkpt>
      <trkpt lat="48.38218" lon="-0.05749">
        <ele>128</ele>
        <time>2019-08-23T12:42:31Z</time>
      </trkpt>
      <trkpt lat="48.38199" lon="-0.05769">
        <ele>127</ele>
        <time>2019-08-23T12:42:26Z</time>
      </trkpt>
      <trkpt lat="48.38177" lon="-0.05804">
        <ele>126</ele>
        <time>2019-08-23T12:42:18Z</time>
      </trkpt>
      <trkpt lat="48.38162" lon="-0.05833">
        <ele>124</ele>
        <time>2019-08-23T12:42:12Z</time>
      </trkpt>
      <trkpt lat="48.38149" lon="-0.05867">
        <ele>123</ele>
        <time>2019-08-23T12:42:06Z</time>
      </trkpt>
      <trkpt lat="48.38144" lon="-0.05898">
        <ele>123</ele>
        <time>2019-08-23T12:42:01Z</time>
      </trkpt>
      <trkpt lat="48.38122" lon="-0.0595">
        <ele>124</ele>
        <time>2019-08-23T12:41:52Z</time>
      </trkpt>
      <trkpt lat="48.38107" lon="-0.05971">
        <ele>125</ele>
        <time>2019-08-23T12:41:47Z</time>
      </trkpt>
      <trkpt lat="48.3808" lon="-0.05994">
        <ele>125</ele>
        <time>2019-08-23T12:41:40Z</time>
      </trkpt>
      <trkpt lat="48.38066" lon="-0.05981">
        <ele>124</ele>
        <time>2019-08-23T12:41:36Z</time>
      </trkpt>
      <trkpt lat="48.38028" lon="-0.05968">
        <ele>124</ele>
        <time>2019-08-23T12:41:27Z</time>
      </trkpt>
      <trkpt lat="48.38047" lon="-0.05954">
        <ele>122</ele>
        <time>2019-08-23T12:41:22Z</time>
      </trkpt>
      <trkpt lat="48.38058" lon="-0.05941">
        <ele>121</ele>
        <time>2019-08-23T12:41:19Z</time>
      </trkpt>
      <trkpt lat="48.38043" lon="-0.05866">
        <ele>120</ele>
        <time>2019-08-23T12:41:07Z</time>
      </trkpt>
      <trkpt lat="48.3804" lon="-0.0583">
        <ele>121</ele>
        <time>2019-08-23T12:41:01Z</time>
      </trkpt>
      <trkpt lat="48.38019" lon="-0.05813">
        <ele>123</ele>
        <time>2019-08-23T12:40:55Z</time>
      </trkpt>
      <trkpt lat="48.37978" lon="-0.05811">
        <ele>124</ele>
        <time>2019-08-23T12:40:46Z</time>
      </trkpt>
      <trkpt lat="48.37939" lon="-0.0579">
        <ele>129</ele>
        <time>2019-08-23T12:40:36Z</time>
      </trkpt>
      <trkpt lat="48.37899" lon="-0.05755">
        <ele>138</ele>
        <time>2019-08-23T12:40:25Z</time>
      </trkpt>
      <trkpt lat="48.37862" lon="-0.05743">
        <ele>142</ele>
        <time>2019-08-23T12:40:16Z</time>
      </trkpt>
      <trkpt lat="48.37835" lon="-0.05727">
        <ele>146</ele>
        <time>2019-08-23T12:40:10Z</time>
      </trkpt>
      <trkpt lat="48.37797" lon="-0.05686">
        <ele>154</ele>
        <time>2019-08-23T12:39:59Z</time>
      </trkpt>
      <trkpt lat="48.37746" lon="-0.0566">
        <ele>158</ele>
        <time>2019-08-23T12:39:46Z</time>
      </trkpt>
      <trkpt lat="48.37737" lon="-0.05742">
        <ele>160</ele>
        <time>2019-08-23T12:39:33Z</time>
      </trkpt>
      <trkpt lat="48.37711" lon="-0.0579">
        <ele>162</ele>
        <time>2019-08-23T12:39:24Z</time>
      </trkpt>
      <trkpt lat="48.377" lon="-0.05804">
        <ele>164</ele>
        <time>2019-08-23T12:39:20Z</time>
      </trkpt>
      <trkpt lat="48.37624" lon="-0.0584">
        <ele>175</ele>
        <time>2019-08-23T12:39:02Z</time>
      </trkpt>
      <trkpt lat="48.37596" lon="-0.05877">
        <ele>179</ele>
        <time>2019-08-23T12:38:53Z</time>
      </trkpt>
      <trkpt lat="48.37582" lon="-0.05912">
        <ele>182</ele>
        <time>2019-08-23T12:38:47Z</time>
      </trkpt>
      <trkpt lat="48.37532" lon="-0.05969">
        <ele>186</ele>
        <time>2019-08-23T12:38:32Z</time>
      </trkpt>
      <trkpt lat="48.37515" lon="-0.06034">
        <ele>187</ele>
        <time>2019-08-23T12:38:21Z</time>
      </trkpt>
      <trkpt lat="48.37491" lon="-0.06059">
        <ele>193</ele>
        <time>2019-08-23T12:38:14Z</time>
      </trkpt>
      <trkpt lat="48.37482" lon="-0.06131">
        <ele>191</ele>
        <time>2019-08-23T12:38:03Z</time>
      </trkpt>
      <trkpt lat="48.37449" lon="-0.06221">
        <ele>195</ele>
        <time>2019-08-23T12:37:47Z</time>
      </trkpt>
      <trkpt lat="48.37456" lon="-0.06335">
        <ele>188</ele>
        <time>2019-08-23T12:37:29Z</time>
      </trkpt>
      <trkpt lat="48.37452" lon="-0.06393">
        <ele>187</ele>
        <time>2019-08-23T12:37:20Z</time>
      </trkpt>
      <trkpt lat="48.37461" lon="-0.06459">
        <ele>185</ele>
        <time>2019-08-23T12:37:10Z</time>
      </trkpt>
      <trkpt lat="48.37479" lon="-0.06535">
        <ele>184</ele>
        <time>2019-08-23T12:36:57Z</time>
      </trkpt>
      <trkpt lat="48.3751" lon="-0.06591">
        <ele>178</ele>
        <time>2019-08-23T12:36:46Z</time>
      </trkpt>
      <trkpt lat="48.37564" lon="-0.06705">
        <ele>170</ele>
        <time>2019-08-23T12:36:24Z</time>
      </trkpt>
      <trkpt lat="48.37497" lon="-0.06732">
        <ele>181</ele>
        <time>2019-08-23T12:36:08Z</time>
      </trkpt>
      <trkpt lat="48.37451" lon="-0.06937">
        <ele>172</ele>
        <time>2019-08-23T12:35:34Z</time>
      </trkpt>
      <trkpt lat="48.37398" lon="-0.07013">
        <ele>169</ele>
        <time>2019-08-23T12:35:17Z</time>
      </trkpt>
      <trkpt lat="48.37372" lon="-0.07055">
        <ele>166</ele>
        <time>2019-08-23T12:35:08Z</time>
      </trkpt>
      <trkpt lat="48.37323" lon="-0.07103">
        <ele>167</ele>
        <time>2019-08-23T12:34:55Z</time>
      </trkpt>
      <trkpt lat="48.37302" lon="-0.07141">
        <ele>161</ele>
        <time>2019-08-23T12:34:47Z</time>
      </trkpt>
      <trkpt lat="48.37255" lon="-0.07206">
        <ele>154</ele>
        <time>2019-08-23T12:34:32Z</time>
      </trkpt>
      <trkpt lat="48.37172" lon="-0.07223">
        <ele>157</ele>
        <time>2019-08-23T12:34:13Z</time>
      </trkpt>
      <trkpt lat="48.37132" lon="-0.07183">
        <ele>163</ele>
        <time>2019-08-23T12:34:01Z</time>
      </trkpt>
      <trkpt lat="48.37094" lon="-0.0721">
        <ele>165</ele>
        <time>2019-08-23T12:33:52Z</time>
      </trkpt>
      <trkpt lat="48.37089" lon="-0.0725">
        <ele>164</ele>
        <time>2019-08-23T12:33:45Z</time>
      </trkpt>
      <trkpt lat="48.3711" lon="-0.07289">
        <ele>159</ele>
        <time>2019-08-23T12:33:38Z</time>
      </trkpt>
      <trkpt lat="48.37127" lon="-0.0734">
        <ele>152</ele>
        <time>2019-08-23T12:33:29Z</time>
      </trkpt>
      <trkpt lat="48.37111" lon="-0.07389">
        <ele>150</ele>
        <time>2019-08-23T12:33:20Z</time>
      </trkpt>
      <trkpt lat="48.37066" lon="-0.07437">
        <ele>149</ele>
        <time>2019-08-23T12:33:07Z</time>
      </trkpt>
      <trkpt lat="48.37008" lon="-0.07481">
        <ele>144</ele>
        <time>2019-08-23T12:32:52Z</time>
      </trkpt>
      <trkpt lat="48.36981" lon="-0.07522">
        <ele>138</ele>
        <time>2019-08-23T12:32:43Z</time>
      </trkpt>
      <trkpt lat="48.36976" lon="-0.07578">
        <ele>129</ele>
        <time>2019-08-23T12:32:34Z</time>
      </trkpt>
      <trkpt lat="48.36985" lon="-0.07639">
        <ele>121</ele>
        <time>2019-08-23T12:32:25Z</time>
      </trkpt>
      <trkpt lat="48.36962" lon="-0.07679">
        <ele>120</ele>
        <time>2019-08-23T12:32:17Z</time>
      </trkpt>
      <trkpt lat="48.36938" lon="-0.07728">
        <ele>118</ele>
        <time>2019-08-23T12:32:07Z</time>
      </trkpt>
      <trkpt lat="48.36897" lon="-0.07749">
        <ele>117</ele>
        <time>2019-08-23T12:31:57Z</time>
      </trkpt>
      <trkpt lat="48.3678" lon="-0.07737">
        <ele>116</ele>
        <time>2019-08-23T12:31:30Z</time>
      </trkpt>
      <trkpt lat="48.36764" lon="-0.07704">
        <ele>117</ele>
        <time>2019-08-23T12:31:23Z</time>
      </trkpt>
      <trkpt lat="48.36734" lon="-0.07672">
        <ele>116</ele>
        <time>2019-08-23T12:31:15Z</time>
      </trkpt>
      <trkpt lat="48.36626" lon="-0.07645">
        <ele>114</ele>
        <time>2019-08-23T12:30:49Z</time>
      </trkpt>
      <trkpt lat="48.36519" lon="-0.07587">
        <ele>114</ele>
        <time>2019-08-23T12:30:23Z</time>
      </trkpt>
      <trkpt lat="48.36486" lon="-0.07549">
        <ele>119</ele>
        <time>2019-08-23T12:30:13Z</time>
      </trkpt>
      <trkpt lat="48.36419" lon="-0.07537">
        <ele>119</ele>
        <time>2019-08-23T12:29:57Z</time>
      </trkpt>
      <trkpt lat="48.36351" lon="-0.07537">
        <ele>119</ele>
        <time>2019-08-23T12:29:41Z</time>
      </trkpt>
      <trkpt lat="48.36191" lon="-0.07562">
        <ele>127</ele>
        <time>2019-08-23T12:29:04Z</time>
      </trkpt>
      <trkpt lat="48.36145" lon="-0.07594">
        <ele>129</ele>
        <time>2019-08-23T12:28:52Z</time>
      </trkpt>
      <trkpt lat="48.36115" lon="-0.07639">
        <ele>131</ele>
        <time>2019-08-23T12:28:42Z</time>
      </trkpt>
      <trkpt lat="48.36088" lon="-0.07699">
        <ele>131</ele>
        <time>2019-08-23T12:28:31Z</time>
      </trkpt>
      <trkpt lat="48.36069" lon="-0.07757">
        <ele>128</ele>
        <time>2019-08-23T12:28:21Z</time>
      </trkpt>
      <trkpt lat="48.36029" lon="-0.07838">
        <ele>126</ele>
        <time>2019-08-23T12:28:05Z</time>
      </trkpt>
    </trkseg>
  </trk>
</gpx>